Saturday, May 26, 2018, 6:10 AM EDT
Back to Local

KRUT, Rutland, Rutland-southern Vermont Regional Airport

Location: North Clarendon, VT, United States Lat: 43.533
Local Time: 6:10 AM EDT (10:10 GMT) Lon: -72.95
Time Zone: US/Eastern Elev: 787 ft

Show me the last for .
Show Decoded

2018-05-26 05:56 METAR KRUT 260956Z AUTO 10003KT 10SM SCT070 OVC090 18/12 A2976 RMK AO2 SLP088
                 T01830122 $ =
2018-05-26 04:56 METAR KRUT 260856Z AUTO 14003KT 10SM BKN070 OVC090 18/12 A2975 RMK AO2 SLP083
                 T01830122 53002 $ =
2018-05-26 03:56 METAR KRUT 260756Z AUTO 25003KT 10SM OVC065 21/10 A2975 RMK AO2 SLP080 T02110100
                 $ =
2018-05-26 02:56 METAR KRUT 260656Z AUTO 14003KT 10SM SCT070 SCT090 22/10 A2974 RMK AO2 SLP075
                 T02170100 $ =
2018-05-26 01:56 METAR KRUT 260556Z AUTO 00000KT 10SM SCT065 BKN080 22/11 A2974 RMK AO2 SLP077
                 T02220111 10233 20194 58005 $ =
2018-05-26 00:56 METAR KRUT 260456Z AUTO 25004KT 10SM SCT075 BKN100 23/11 A2975 RMK AO2 SLP080
                 T02280111 402830106 $ =
2018-05-25 23:56 METAR KRUT 260356Z AUTO 00000KT 10SM SCT070 BKN090 21/12 A2976 RMK AO2 SLP083
                 T02110117 $ =
2018-05-25 22:56 METAR KRUT 260256Z AUTO 00000KT 10SM FEW075 OVC100 22/13 A2976 RMK AO2 SLP084
                 T02170128 58007 $ =
2018-05-25 21:56 METAR KRUT 260156Z AUTO 00000KT 10SM BKN090 OVC100 20/14 A2977 RMK AO2 SLP092
                 T02000139 $ =
2018-05-25 20:56 METAR KRUT 260056Z AUTO 00000KT 10SM OVC075 20/14 A2978 RMK AO2 SLP094 T02000139
                 $ =
2018-05-25 19:56 METAR KRUT 252356Z AUTO 00000KT 10SM OVC075 21/13 A2978 RMK AO2 RAE23 SLP096
                 P0000 60000 T02110133 10283 20211 53002 $ =
2018-05-25 18:56 METAR KRUT 252256Z AUTO 01004KT 10SM -RA OVC075 23/13 A2977 RMK AO2 RAB55 SLP094
                 P0000 T02280128 $ =
2018-05-25 17:56 METAR KRUT 252156Z AUTO 20004KT 10SM OVC080 24/11 A2977 RMK AO2 RAE03 SLP096
                 P0000 T02390111 $ =
2018-05-25 16:56 METAR KRUT 252056Z AUTO 23006G15KT 10SM -RA OVC080 26/10 A2977 RMK AO2 RAB50
                 SLP096 P0000 60000 T02560100 55013 $ =
2018-05-25 15:56 METAR KRUT 251956Z AUTO 23013G17KT 10SM BKN085 BKN120 27/08 A2977 RMK AO2 SLP094
                 T02720078 $ =
2018-05-25 14:56 METAR KRUT 251856Z AUTO 24009G16KT 210V270 10SM FEW090 28/09 A2979 RMK AO2
                 SLP099 T02780089 $ =
2018-05-25 13:56 METAR KRUT 251756Z AUTO 24013G18KT 10SM CLR 27/09 A2981 RMK AO2 SLP107 T02720094
                 10272 20189 56025 $ =
2018-05-25 12:56 METAR KRUT 251656Z AUTO 24014G20KT 10SM CLR 27/10 A2983 RMK AO2 SLP113 T02670100
                 $ =
2018-05-25 11:56 METAR KRUT 251556Z AUTO 26011G16KT 10SM CLR 26/11 A2986 RMK AO2 SLP125 T02560106
                 $ =
2018-05-25 10:56 METAR KRUT 251456Z AUTO 24014G18KT 10SM CLR 25/10 A2989 RMK AO2 SLP133 T02500100
                 58019 $ =
2018-05-25 09:56 METAR KRUT 251356Z AUTO 24009KT 10SM CLR 23/10 A2991 RMK AO2 SLP141 T02330100 $
                 =
2018-05-25 08:56 METAR KRUT 251256Z AUTO 26006KT 10SM CLR 22/09 A2994 RMK AO2 SLP149 T02170094 $
                 =
2018-05-25 07:56 METAR KRUT 251156Z AUTO 09003KT 10SM CLR 19/11 A2995 RMK AO2 SLP152 T01890106
                 10189 20106 58006 $ =
2018-05-25 06:56 METAR KRUT 251056Z AUTO 12004KT 10SM SCT080 13/09 A2996 RMK AO2 SLP159 T01330089
                 $ =

Support USWX by starting your Amazon purchase here.